sensor_id;sensor_type;location;lat;lon;timestamp;temperature;humidity
55634;DHT22;41504;53.162;6.788;2023-09-08T00:00:18;20.80;76.00
55634;DHT22;41504;53.162;6.788;2023-09-08T00:02:44;20.80;76.10
55634;DHT22;41504;53.162;6.788;2023-09-08T00:05:10;20.80;76.30
55634;DHT22;41504;53.162;6.788;2023-09-08T00:07:36;20.70;76.40
55634;DHT22;41504;53.162;6.788;2023-09-08T00:10:01;20.70;76.40
55634;DHT22;41504;53.162;6.788;2023-09-08T00:12:27;20.70;76.60
55634;DHT22;41504;53.162;6.788;2023-09-08T00:14:53;20.70;76.70
55634;DHT22;41504;53.162;6.788;2023-09-08T00:17:18;20.70;76.80
55634;DHT22;41504;53.162;6.788;2023-09-08T00:19:44;20.60;76.90
55634;DHT22;41504;53.162;6.788;2023-09-08T00:22:10;20.60;76.90
55634;DHT22;41504;53.162;6.788;2023-09-08T00:24:35;20.60;77.00
55634;DHT22;41504;53.162;6.788;2023-09-08T00:27:01;20.60;77.00
55634;DHT22;41504;53.162;6.788;2023-09-08T00:29:27;20.50;76.90
55634;DHT22;41504;53.162;6.788;2023-09-08T00:31:53;20.50;77.00
55634;DHT22;41504;53.162;6.788;2023-09-08T00:34:18;20.50;77.10
55634;DHT22;41504;53.162;6.788;2023-09-08T00:36:44;20.50;77.10
55634;DHT22;41504;53.162;6.788;2023-09-08T00:39:10;20.50;77.20
55634;DHT22;41504;53.162;6.788;2023-09-08T00:41:35;20.50;77.10
55634;DHT22;41504;53.162;6.788;2023-09-08T00:44:01;20.40;77.20
55634;DHT22;41504;53.162;6.788;2023-09-08T00:46:27;20.40;77.80
55634;DHT22;41504;53.162;6.788;2023-09-08T00:48:54;20.40;77.20
55634;DHT22;41504;53.162;6.788;2023-09-08T00:51:21;20.40;77.20
55634;DHT22;41504;53.162;6.788;2023-09-08T00:53:47;20.40;77.20
55634;DHT22;41504;53.162;6.788;2023-09-08T00:56:12;20.40;77.40
55634;DHT22;41504;53.162;6.788;2023-09-08T00:58:38;20.30;77.40
55634;DHT22;41504;53.162;6.788;2023-09-08T01:01:04;20.30;77.60
55634;DHT22;41504;53.162;6.788;2023-09-08T01:03:32;20.30;77.60
55634;DHT22;41504;53.162;6.788;2023-09-08T01:05:58;20.30;77.60
55634;DHT22;41504;53.162;6.788;2023-09-08T01:08:23;20.30;77.70
55634;DHT22;41504;53.162;6.788;2023-09-08T01:10:51;20.20;77.70
55634;DHT22;41504;53.162;6.788;2023-09-08T01:13:17;20.20;77.70
55634;DHT22;41504;53.162;6.788;2023-09-08T01:15:42;20.20;77.70
55634;DHT22;41504;53.162;6.788;2023-09-08T01:18:08;20.10;77.80
55634;DHT22;41504;53.162;6.788;2023-09-08T01:23:28;20.10;78.00
55634;DHT22;41504;53.162;6.788;2023-09-08T01:26:09;20.00;78.10
55634;DHT22;41504;53.162;6.788;2023-09-08T01:28:36;20.00;78.10
55634;DHT22;41504;53.162;6.788;2023-09-08T01:31:02;20.00;78.20
55634;DHT22;41504;53.162;6.788;2023-09-08T01:33:27;20.00;78.30
55634;DHT22;41504;53.162;6.788;2023-09-08T01:35:53;20.00;78.50
55634;DHT22;41504;53.162;6.788;2023-09-08T01:38:21;19.90;78.40
55634;DHT22;41504;53.162;6.788;2023-09-08T01:40:47;19.90;78.40
55634;DHT22;41504;53.162;6.788;2023-09-08T01:43:13;19.90;78.70
55634;DHT22;41504;53.162;6.788;2023-09-08T01:45:38;19.90;78.60
55634;DHT22;41504;53.162;6.788;2023-09-08T01:48:04;19.80;78.70
55634;DHT22;41504;53.162;6.788;2023-09-08T01:50:30;19.80;78.80
55634;DHT22;41504;53.162;6.788;2023-09-08T01:52:56;19.80;78.90
55634;DHT22;41504;53.162;6.788;2023-09-08T01:55:21;19.80;78.90
55634;DHT22;41504;53.162;6.788;2023-09-08T01:57:47;19.70;79.00
55634;DHT22;41504;53.162;6.788;2023-09-08T02:00:13;19.70;79.00
55634;DHT22;41504;53.162;6.788;2023-09-08T02:02:39;19.60;79.00
55634;DHT22;41504;53.162;6.788;2023-09-08T02:05:06;19.60;79.30
55634;DHT22;41504;53.162;6.788;2023-09-08T02:07:31;19.60;79.50
55634;DHT22;41504;53.162;6.788;2023-09-08T02:09:57;19.50;79.60
55634;DHT22;41504;53.162;6.788;2023-09-08T02:12:23;19.50;79.70
55634;DHT22;41504;53.162;6.788;2023-09-08T02:14:48;19.50;80.00
55634;DHT22;41504;53.162;6.788;2023-09-08T02:17:14;19.50;80.10
55634;DHT22;41504;53.162;6.788;2023-09-08T02:19:40;19.40;80.20
55634;DHT22;41504;53.162;6.788;2023-09-08T02:22:05;19.40;80.30
55634;DHT22;41504;53.162;6.788;2023-09-08T02:24:31;19.40;80.50
55634;DHT22;41504;53.162;6.788;2023-09-08T02:26:57;19.30;80.50
55634;DHT22;41504;53.162;6.788;2023-09-08T02:29:22;19.30;80.60
55634;DHT22;41504;53.162;6.788;2023-09-08T02:31:48;19.30;80.70
55634;DHT22;41504;53.162;6.788;2023-09-08T02:34:14;19.30;80.90
55634;DHT22;41504;53.162;6.788;2023-09-08T02:36:40;19.30;80.80
55634;DHT22;41504;53.162;6.788;2023-09-08T02:39:06;19.20;81.00
55634;DHT22;41504;53.162;6.788;2023-09-08T02:41:33;19.20;81.00
55634;DHT22;41504;53.162;6.788;2023-09-08T02:43:59;19.20;81.10
55634;DHT22;41504;53.162;6.788;2023-09-08T02:46:24;19.10;81.10
55634;DHT22;41504;53.162;6.788;2023-09-08T02:48:51;19.10;81.20
55634;DHT22;41504;53.162;6.788;2023-09-08T02:51:17;19.10;81.20
55634;DHT22;41504;53.162;6.788;2023-09-08T02:53:42;19.00;81.30
55634;DHT22;41504;53.162;6.788;2023-09-08T02:56:08;19.00;81.50
55634;DHT22;41504;53.162;6.788;2023-09-08T02:58:35;18.90;81.50
55634;DHT22;41504;53.162;6.788;2023-09-08T03:01:15;18.90;82.00
55634;DHT22;41504;53.162;6.788;2023-09-08T03:03:41;18.90;82.10
55634;DHT22;41504;53.162;6.788;2023-09-08T03:06:08;18.80;82.00
55634;DHT22;41504;53.162;6.788;2023-09-08T03:08:34;18.80;82.00
55634;DHT22;41504;53.162;6.788;2023-09-08T03:11:02;18.80;82.20
55634;DHT22;41504;53.162;6.788;2023-09-08T03:13:28;18.70;82.30
55634;DHT22;41504;53.162;6.788;2023-09-08T03:15:55;18.70;82.40
55634;DHT22;41504;53.162;6.788;2023-09-08T03:18:22;18.70;82.40
55634;DHT22;41504;53.162;6.788;2023-09-08T03:20:51;18.70;82.60
55634;DHT22;41504;53.162;6.788;2023-09-08T03:23:17;18.60;83.00
55634;DHT22;41504;53.162;6.788;2023-09-08T03:25:43;18.60;83.10
55634;DHT22;41504;53.162;6.788;2023-09-08T03:28:09;18.60;83.30
55634;DHT22;41504;53.162;6.788;2023-09-08T03:30:35;18.60;83.30
55634;DHT22;41504;53.162;6.788;2023-09-08T03:33:01;18.50;83.30
55634;DHT22;41504;53.162;6.788;2023-09-08T03:35:26;18.50;83.50
55634;DHT22;41504;53.162;6.788;2023-09-08T03:37:52;18.50;83.70
55634;DHT22;41504;53.162;6.788;2023-09-08T03:40:18;18.50;83.80
55634;DHT22;41504;53.162;6.788;2023-09-08T03:42:43;18.50;83.70
55634;DHT22;41504;53.162;6.788;2023-09-08T03:45:09;18.40;83.80
55634;DHT22;41504;53.162;6.788;2023-09-08T03:47:35;18.40;83.90
55634;DHT22;41504;53.162;6.788;2023-09-08T03:50:01;18.40;84.00
55634;DHT22;41504;53.162;6.788;2023-09-08T03:52:26;18.40;84.10
55634;DHT22;41504;53.162;6.788;2023-09-08T03:54:52;18.40;84.20
55634;DHT22;41504;53.162;6.788;2023-09-08T03:57:18;18.40;84.10
55634;DHT22;41504;53.162;6.788;2023-09-08T03:59:44;18.30;84.20
55634;DHT22;41504;53.162;6.788;2023-09-08T04:02:09;18.30;84.30
55634;DHT22;41504;53.162;6.788;2023-09-08T04:04:35;18.30;84.50
55634;DHT22;41504;53.162;6.788;2023-09-08T04:07:00;18.20;84.60
55634;DHT22;41504;53.162;6.788;2023-09-08T04:09:26;18.20;84.70
55634;DHT22;41504;53.162;6.788;2023-09-08T04:11:53;18.20;84.70
55634;DHT22;41504;53.162;6.788;2023-09-08T04:14:21;18.10;84.90
55634;DHT22;41504;53.162;6.788;2023-09-08T04:16:49;18.20;85.10
55634;DHT22;41504;53.162;6.788;2023-09-08T04:19:14;18.10;85.10
55634;DHT22;41504;53.162;6.788;2023-09-08T04:21:41;18.00;85.20
55634;DHT22;41504;53.162;6.788;2023-09-08T04:24:06;18.00;85.40
55634;DHT22;41504;53.162;6.788;2023-09-08T04:26:32;18.00;85.40
55634;DHT22;41504;53.162;6.788;2023-09-08T04:28:58;18.00;85.40
55634;DHT22;41504;53.162;6.788;2023-09-08T04:31:23;18.00;85.50
55634;DHT22;41504;53.162;6.788;2023-09-08T04:33:49;18.00;85.50
55634;DHT22;41504;53.162;6.788;2023-09-08T04:36:15;17.90;85.50
55634;DHT22;41504;53.162;6.788;2023-09-08T04:38:40;17.90;85.60
55634;DHT22;41504;53.162;6.788;2023-09-08T04:41:07;17.90;85.80
55634;DHT22;41504;53.162;6.788;2023-09-08T04:43:32;17.90;85.80
55634;DHT22;41504;53.162;6.788;2023-09-08T04:45:58;17.80;85.80
55634;DHT22;41504;53.162;6.788;2023-09-08T04:48:24;17.80;85.80
55634;DHT22;41504;53.162;6.788;2023-09-08T04:50:49;17.80;86.00
55634;DHT22;41504;53.162;6.788;2023-09-08T04:53:16;17.80;86.10
55634;DHT22;41504;53.162;6.788;2023-09-08T04:55:43;17.80;86.30
55634;DHT22;41504;53.162;6.788;2023-09-08T04:58:08;17.80;86.90
55634;DHT22;41504;53.162;6.788;2023-09-08T05:00:34;17.70;86.40
55634;DHT22;41504;53.162;6.788;2023-09-08T05:03:00;17.70;86.60
55634;DHT22;41504;53.162;6.788;2023-09-08T05:05:26;17.70;86.60
55634;DHT22;41504;53.162;6.788;2023-09-08T05:07:51;17.70;86.60
55634;DHT22;41504;53.162;6.788;2023-09-08T05:10:24;17.70;86.70
55634;DHT22;41504;53.162;6.788;2023-09-08T05:12:50;17.70;86.90
55634;DHT22;41504;53.162;6.788;2023-09-08T05:15:16;17.70;86.90
55634;DHT22;41504;53.162;6.788;2023-09-08T05:17:43;17.60;86.90
55634;DHT22;41504;53.162;6.788;2023-09-08T05:20:09;17.60;87.10
55634;DHT22;41504;53.162;6.788;2023-09-08T05:22:35;17.60;87.20
55634;DHT22;41504;53.162;6.788;2023-09-08T05:25:02;17.60;87.20
55634;DHT22;41504;53.162;6.788;2023-09-08T05:27:28;17.60;87.30
55634;DHT22;41504;53.162;6.788;2023-09-08T05:29:53;17.60;87.50
55634;DHT22;41504;53.162;6.788;2023-09-08T05:32:19;17.60;87.60
55634;DHT22;41504;53.162;6.788;2023-09-08T05:34:45;17.70;87.60
55634;DHT22;41504;53.162;6.788;2023-09-08T05:37:11;17.70;87.60
55634;DHT22;41504;53.162;6.788;2023-09-08T05:39:36;17.70;87.60
55634;DHT22;41504;53.162;6.788;2023-09-08T05:42:02;17.70;87.60
55634;DHT22;41504;53.162;6.788;2023-09-08T05:44:28;17.70;87.60
55634;DHT22;41504;53.162;6.788;2023-09-08T05:46:54;17.70;87.70
55634;DHT22;41504;53.162;6.788;2023-09-08T05:49:19;17.80;87.80
55634;DHT22;41504;53.162;6.788;2023-09-08T05:51:45;17.80;87.80
55634;DHT22;41504;53.162;6.788;2023-09-08T05:54:11;17.80;87.70
55634;DHT22;41504;53.162;6.788;2023-09-08T05:56:37;17.90;87.60
55634;DHT22;41504;53.162;6.788;2023-09-08T05:59:03;17.90;87.60
55634;DHT22;41504;53.162;6.788;2023-09-08T06:01:30;17.90;87.50
55634;DHT22;41504;53.162;6.788;2023-09-08T06:03:56;18.00;87.50
55634;DHT22;41504;53.162;6.788;2023-09-08T06:06:22;18.00;87.90
55634;DHT22;41504;53.162;6.788;2023-09-08T06:08:48;18.00;87.20
55634;DHT22;41504;53.162;6.788;2023-09-08T06:11:14;18.10;87.20
55634;DHT22;41504;53.162;6.788;2023-09-08T06:13:40;18.10;87.00
55634;DHT22;41504;53.162;6.788;2023-09-08T06:16:06;18.10;86.90
55634;DHT22;41504;53.162;6.788;2023-09-08T06:18:31;18.10;87.00
55634;DHT22;41504;53.162;6.788;2023-09-08T06:20:57;18.20;86.90
55634;DHT22;41504;53.162;6.788;2023-09-08T06:23:23;18.20;86.90
55634;DHT22;41504;53.162;6.788;2023-09-08T06:25:49;18.30;86.90
55634;DHT22;41504;53.162;6.788;2023-09-08T06:28:15;18.30;86.80
55634;DHT22;41504;53.162;6.788;2023-09-08T06:30:41;18.40;86.70
55634;DHT22;41504;53.162;6.788;2023-09-08T06:33:10;18.40;86.70
55634;DHT22;41504;53.162;6.788;2023-09-08T06:35:36;18.40;86.90
55634;DHT22;41504;53.162;6.788;2023-09-08T06:38:01;18.50;86.90
55634;DHT22;41504;53.162;6.788;2023-09-08T06:40:29;18.50;86.90
55634;DHT22;41504;53.162;6.788;2023-09-08T06:42:55;18.50;86.90
55634;DHT22;41504;53.162;6.788;2023-09-08T06:45:22;18.60;86.90
55634;DHT22;41504;53.162;6.788;2023-09-08T06:47:48;18.70;86.90
55634;DHT22;41504;53.162;6.788;2023-09-08T06:50:15;18.70;86.80
55634;DHT22;41504;53.162;6.788;2023-09-08T06:52:41;18.80;86.80
55634;DHT22;41504;53.162;6.788;2023-09-08T06:55:07;18.80;86.80
55634;DHT22;41504;53.162;6.788;2023-09-08T06:57:33;18.90;86.70
55634;DHT22;41504;53.162;6.788;2023-09-08T06:59:58;19.00;86.70
55634;DHT22;41504;53.162;6.788;2023-09-08T07:02:24;19.10;86.60
55634;DHT22;41504;53.162;6.788;2023-09-08T07:04:50;19.10;86.40
55634;DHT22;41504;53.162;6.788;2023-09-08T07:07:16;19.20;86.40
55634;DHT22;41504;53.162;6.788;2023-09-08T07:09:43;19.30;86.30
55634;DHT22;41504;53.162;6.788;2023-09-08T07:12:09;19.40;86.20
55634;DHT22;41504;53.162;6.788;2023-09-08T07:14:34;19.40;86.10
55634;DHT22;41504;53.162;6.788;2023-09-08T07:17:00;19.50;85.90
55634;DHT22;41504;53.162;6.788;2023-09-08T07:19:26;19.60;85.70
55634;DHT22;41504;53.162;6.788;2023-09-08T07:21:53;19.70;85.60
55634;DHT22;41504;53.162;6.788;2023-09-08T07:24:18;19.80;85.40
55634;DHT22;41504;53.162;6.788;2023-09-08T07:26:44;19.90;85.80
55634;DHT22;41504;53.162;6.788;2023-09-08T07:29:10;20.00;85.00
55634;DHT22;41504;53.162;6.788;2023-09-08T07:31:36;20.10;84.80
55634;DHT22;41504;53.162;6.788;2023-09-08T07:34:01;20.20;84.60
55634;DHT22;41504;53.162;6.788;2023-09-08T07:36:27;20.30;84.50
55634;DHT22;41504;53.162;6.788;2023-09-08T07:38:53;20.40;84.30
55634;DHT22;41504;53.162;6.788;2023-09-08T07:41:18;20.50;84.20
55634;DHT22;41504;53.162;6.788;2023-09-08T07:43:44;20.60;83.80
55634;DHT22;41504;53.162;6.788;2023-09-08T07:46:11;20.70;83.50
55634;DHT22;41504;53.162;6.788;2023-09-08T07:48:37;20.80;83.00
55634;DHT22;41504;53.162;6.788;2023-09-08T07:51:03;20.90;82.60
55634;DHT22;41504;53.162;6.788;2023-09-08T07:53:28;20.90;82.20
55634;DHT22;41504;53.162;6.788;2023-09-08T07:55:54;21.00;82.00
55634;DHT22;41504;53.162;6.788;2023-09-08T07:58:21;21.10;82.00
55634;DHT22;41504;53.162;6.788;2023-09-08T08:00:47;21.10;81.90
55634;DHT22;41504;53.162;6.788;2023-09-08T08:03:12;21.20;82.00
55634;DHT22;41504;53.162;6.788;2023-09-08T08:05:38;21.20;81.80
55634;DHT22;41504;53.162;6.788;2023-09-08T08:08:04;21.30;81.90
55634;DHT22;41504;53.162;6.788;2023-09-08T08:10:29;21.30;81.90
55634;DHT22;41504;53.162;6.788;2023-09-08T08:12:55;21.40;81.70
55634;DHT22;41504;53.162;6.788;2023-09-08T08:15:23;21.40;81.50
55634;DHT22;41504;53.162;6.788;2023-09-08T08:17:48;21.50;81.70
55634;DHT22;41504;53.162;6.788;2023-09-08T08:20:14;21.50;81.90
55634;DHT22;41504;53.162;6.788;2023-09-08T08:22:44;21.60;81.90
55634;DHT22;41504;53.162;6.788;2023-09-08T08:25:13;21.70;81.30
55634;DHT22;41504;53.162;6.788;2023-09-08T08:27:39;21.80;80.70
55634;DHT22;41504;53.162;6.788;2023-09-08T08:30:08;21.90;80.50
55634;DHT22;41504;53.162;6.788;2023-09-08T08:32:34;22.00;80.10
55634;DHT22;41504;53.162;6.788;2023-09-08T08:35:00;22.00;79.80
55634;DHT22;41504;53.162;6.788;2023-09-08T08:37:29;22.10;79.50
55634;DHT22;41504;53.162;6.788;2023-09-08T08:39:54;22.10;79.70
55634;DHT22;41504;53.162;6.788;2023-09-08T08:42:20;22.10;79.60
55634;DHT22;41504;53.162;6.788;2023-09-08T08:44:48;22.20;79.50
55634;DHT22;41504;53.162;6.788;2023-09-08T08:47:14;22.30;79.20
55634;DHT22;41504;53.162;6.788;2023-09-08T08:49:43;22.40;78.80
55634;DHT22;41504;53.162;6.788;2023-09-08T08:52:13;22.40;78.60
55634;DHT22;41504;53.162;6.788;2023-09-08T08:54:40;22.50;78.90
55634;DHT22;41504;53.162;6.788;2023-09-08T08:57:07;22.60;78.70
55634;DHT22;41504;53.162;6.788;2023-09-08T08:59:32;22.70;78.80
55634;DHT22;41504;53.162;6.788;2023-09-08T09:01:59;22.70;78.70
55634;DHT22;41504;53.162;6.788;2023-09-08T09:04:26;22.80;78.70
55634;DHT22;41504;53.162;6.788;2023-09-08T09:06:55;22.90;78.80
55634;DHT22;41504;53.162;6.788;2023-09-08T09:09:21;23.00;78.70
55634;DHT22;41504;53.162;6.788;2023-09-08T09:11:53;23.10;78.20
55634;DHT22;41504;53.162;6.788;2023-09-08T09:14:19;23.20;77.70
55634;DHT22;41504;53.162;6.788;2023-09-08T09:16:51;23.20;77.80
55634;DHT22;41504;53.162;6.788;2023-09-08T09:19:21;23.30;77.70
55634;DHT22;41504;53.162;6.788;2023-09-08T09:21:51;23.40;77.10
55634;DHT22;41504;53.162;6.788;2023-09-08T09:24:36;23.50;77.00
55634;DHT22;41504;53.162;6.788;2023-09-08T09:27:04;23.60;75.90
55634;DHT22;41504;53.162;6.788;2023-09-08T09:29:48;23.60;75.60
55634;DHT22;41504;53.162;6.788;2023-09-08T09:32:14;23.70;75.50
55634;DHT22;41504;53.162;6.788;2023-09-08T09:34:53;23.80;75.30
55634;DHT22;41504;53.162;6.788;2023-09-08T09:37:20;23.80;75.30
55634;DHT22;41504;53.162;6.788;2023-09-08T09:39:50;24.00;75.30
55634;DHT22;41504;53.162;6.788;2023-09-08T09:42:16;24.10;74.80
55634;DHT22;41504;53.162;6.788;2023-09-08T09:44:42;24.10;74.30
55634;DHT22;41504;53.162;6.788;2023-09-08T09:47:08;24.20;74.60
55634;DHT22;41504;53.162;6.788;2023-09-08T09:49:48;24.30;74.30
55634;DHT22;41504;53.162;6.788;2023-09-08T09:52:23;24.40;74.00
55634;DHT22;41504;53.162;6.788;2023-09-08T09:54:52;24.50;73.70
55634;DHT22;41504;53.162;6.788;2023-09-08T09:57:21;24.50;72.90
55634;DHT22;41504;53.162;6.788;2023-09-08T09:59:47;24.70;72.80
55634;DHT22;41504;53.162;6.788;2023-09-08T10:02:18;24.70;72.30
55634;DHT22;41504;53.162;6.788;2023-09-08T10:04:48;24.80;72.30
55634;DHT22;41504;53.162;6.788;2023-09-08T10:07:18;24.80;72.30
55634;DHT22;41504;53.162;6.788;2023-09-08T10:09:44;24.90;71.90
55634;DHT22;41504;53.162;6.788;2023-09-08T10:12:14;25.00;71.60
55634;DHT22;41504;53.162;6.788;2023-09-08T10:14:43;25.10;71.20
55634;DHT22;41504;53.162;6.788;2023-09-08T10:17:15;25.20;70.60
55634;DHT22;41504;53.162;6.788;2023-09-08T10:19:45;25.20;70.20
55634;DHT22;41504;53.162;6.788;2023-09-08T10:22:20;25.20;70.10
55634;DHT22;41504;53.162;6.788;2023-09-08T10:24:50;25.30;69.90
55634;DHT22;41504;53.162;6.788;2023-09-08T10:27:16;25.40;69.70
55634;DHT22;41504;53.162;6.788;2023-09-08T10:29:46;25.50;69.70
55634;DHT22;41504;53.162;6.788;2023-09-08T10:32:12;25.50;69.20
55634;DHT22;41504;53.162;6.788;2023-09-08T10:34:39;25.60;69.00
55634;DHT22;41504;53.162;6.788;2023-09-08T10:37:19;25.70;69.10
55634;DHT22;41504;53.162;6.788;2023-09-08T10:39:44;25.80;68.60
55634;DHT22;41504;53.162;6.788;2023-09-08T10:47:30;26.10;69.30
55634;DHT22;41504;53.162;6.788;2023-09-08T10:49:56;26.20;68.80
55634;DHT22;41504;53.162;6.788;2023-09-08T10:52:24;26.30;68.30
55634;DHT22;41504;53.162;6.788;2023-09-08T10:54:54;26.40;67.80
55634;DHT22;41504;53.162;6.788;2023-09-08T10:57:23;26.50;67.40
55634;DHT22;41504;53.162;6.788;2023-09-08T11:00:01;26.60;67.10
55634;DHT22;41504;53.162;6.788;2023-09-08T11:05:01;26.70;66.70
55634;DHT22;41504;53.162;6.788;2023-09-08T11:07:27;26.80;66.20
55634;DHT22;41504;53.162;6.788;2023-09-08T11:09:53;26.90;66.10
55634;DHT22;41504;53.162;6.788;2023-09-08T11:12:19;27.00;66.20
55634;DHT22;41504;53.162;6.788;2023-09-08T11:14:49;27.10;65.80
55634;DHT22;41504;53.162;6.788;2023-09-08T11:17:14;27.20;65.30
55634;DHT22;41504;53.162;6.788;2023-09-08T11:19:48;27.20;65.20
55634;DHT22;41504;53.162;6.788;2023-09-08T11:22:17;27.30;64.50
55634;DHT22;41504;53.162;6.788;2023-09-08T11:24:43;27.40;64.20
55634;DHT22;41504;53.162;6.788;2023-09-08T11:27:12;27.40;64.00
55634;DHT22;41504;53.162;6.788;2023-09-08T11:29:38;27.50;63.60
55634;DHT22;41504;53.162;6.788;2023-09-08T11:32:11;27.60;63.20
55634;DHT22;41504;53.162;6.788;2023-09-08T11:34:39;27.60;63.00
55634;DHT22;41504;53.162;6.788;2023-09-08T11:37:13;27.70;62.50
55634;DHT22;41504;53.162;6.788;2023-09-08T11:39:40;27.70;62.00
55634;DHT22;41504;53.162;6.788;2023-09-08T11:42:08;27.80;61.80
55634;DHT22;41504;53.162;6.788;2023-09-08T11:44:34;27.90;61.20
55634;DHT22;41504;53.162;6.788;2023-09-08T11:47:04;27.90;61.10
55634;DHT22;41504;53.162;6.788;2023-09-08T11:49:39;28.00;60.80
55634;DHT22;41504;53.162;6.788;2023-09-08T11:52:06;28.10;60.40
55634;DHT22;41504;53.162;6.788;2023-09-08T11:54:35;28.10;59.70
55634;DHT22;41504;53.162;6.788;2023-09-08T11:57:15;28.20;59.20
55634;DHT22;41504;53.162;6.788;2023-09-08T11:59:41;28.30;58.80
55634;DHT22;41504;53.162;6.788;2023-09-08T12:02:07;28.40;58.50
55634;DHT22;41504;53.162;6.788;2023-09-08T12:04:35;28.40;58.20
55634;DHT22;41504;53.162;6.788;2023-09-08T12:07:01;28.50;57.80
55634;DHT22;41504;53.162;6.788;2023-09-08T12:09:26;28.60;56.80
55634;DHT22;41504;53.162;6.788;2023-09-08T12:11:52;28.50;56.00
55634;DHT22;41504;53.162;6.788;2023-09-08T12:14:18;28.50;56.70
55634;DHT22;41504;53.162;6.788;2023-09-08T12:16:44;28.60;55.30
55634;DHT22;41504;53.162;6.788;2023-09-08T12:19:29;28.60;55.60
55634;DHT22;41504;53.162;6.788;2023-09-08T12:22:01;28.70;55.80
55634;DHT22;41504;53.162;6.788;2023-09-08T12:27:19;28.80;53.80
55634;DHT22;41504;53.162;6.788;2023-09-08T12:29:56;28.90;53.90
55634;DHT22;41504;53.162;6.788;2023-09-08T12:32:23;28.90;53.20
55634;DHT22;41504;53.162;6.788;2023-09-08T12:34:50;28.90;53.30
55634;DHT22;41504;53.162;6.788;2023-09-08T12:37:20;28.90;53.10
55634;DHT22;41504;53.162;6.788;2023-09-08T12:39:46;29.00;52.50
55634;DHT22;41504;53.162;6.788;2023-09-08T12:42:12;29.00;52.90
55634;DHT22;41504;53.162;6.788;2023-09-08T12:44:38;29.10;52.70
55634;DHT22;41504;53.162;6.788;2023-09-08T12:47:03;29.10;53.00
55634;DHT22;41504;53.162;6.788;2023-09-08T12:49:29;29.10;52.50
55634;DHT22;41504;53.162;6.788;2023-09-08T12:51:55;29.10;52.60
55634;DHT22;41504;53.162;6.788;2023-09-08T12:54:21;29.20;53.00
55634;DHT22;41504;53.162;6.788;2023-09-08T12:56:46;29.30;52.80
55634;DHT22;41504;53.162;6.788;2023-09-08T12:59:12;29.40;52.00
55634;DHT22;41504;53.162;6.788;2023-09-08T13:01:38;29.40;52.00
55634;DHT22;41504;53.162;6.788;2023-09-08T13:04:04;29.40;52.40
55634;DHT22;41504;53.162;6.788;2023-09-08T13:06:30;29.50;52.50
55634;DHT22;41504;53.162;6.788;2023-09-08T13:08:57;29.50;52.30
55634;DHT22;41504;53.162;6.788;2023-09-08T13:11:24;29.60;52.40
55634;DHT22;41504;53.162;6.788;2023-09-08T13:13:50;29.70;52.00
55634;DHT22;41504;53.162;6.788;2023-09-08T13:16:15;29.70;51.70
55634;DHT22;41504;53.162;6.788;2023-09-08T13:18:44;29.80;52.30
55634;DHT22;41504;53.162;6.788;2023-09-08T13:21:11;29.80;52.40
55634;DHT22;41504;53.162;6.788;2023-09-08T13:23:40;29.90;52.20
55634;DHT22;41504;53.162;6.788;2023-09-08T13:26:05;29.90;52.10
55634;DHT22;41504;53.162;6.788;2023-09-08T13:28:31;30.00;51.30
55634;DHT22;41504;53.162;6.788;2023-09-08T13:30:57;30.00;51.10
55634;DHT22;41504;53.162;6.788;2023-09-08T13:33:22;30.10;50.90
55634;DHT22;41504;53.162;6.788;2023-09-08T13:35:48;30.10;51.00
55634;DHT22;41504;53.162;6.788;2023-09-08T13:38:14;30.10;50.80
55634;DHT22;41504;53.162;6.788;2023-09-08T13:40:39;30.20;51.40
55634;DHT22;41504;53.162;6.788;2023-09-08T13:43:09;30.20;51.30
55634;DHT22;41504;53.162;6.788;2023-09-08T13:45:39;30.30;51.40
55634;DHT22;41504;53.162;6.788;2023-09-08T13:48:08;30.30;51.30
55634;DHT22;41504;53.162;6.788;2023-09-08T13:50:34;30.40;51.40
55634;DHT22;41504;53.162;6.788;2023-09-08T13:52:59;30.40;50.60
55634;DHT22;41504;53.162;6.788;2023-09-08T13:55:25;30.40;50.80
55634;DHT22;41504;53.162;6.788;2023-09-08T13:57:51;30.40;50.30
55634;DHT22;41504;53.162;6.788;2023-09-08T14:00:17;30.40;50.60
55634;DHT22;41504;53.162;6.788;2023-09-08T14:02:44;30.40;50.10
55634;DHT22;41504;53.162;6.788;2023-09-08T14:05:09;30.40;50.40
55634;DHT22;41504;53.162;6.788;2023-09-08T14:07:35;30.40;50.50
55634;DHT22;41504;53.162;6.788;2023-09-08T14:10:01;30.40;50.60
55634;DHT22;41504;53.162;6.788;2023-09-08T14:12:28;30.50;50.60
55634;DHT22;41504;53.162;6.788;2023-09-08T14:14:54;30.60;50.20
55634;DHT22;41504;53.162;6.788;2023-09-08T14:17:20;30.60;49.10
55634;DHT22;41504;53.162;6.788;2023-09-08T14:19:46;30.50;49.20
55634;DHT22;41504;53.162;6.788;2023-09-08T14:22:12;30.40;49.60
55634;DHT22;41504;53.162;6.788;2023-09-08T14:24:38;30.40;49.70
55634;DHT22;41504;53.162;6.788;2023-09-08T14:27:03;30.50;49.20
55634;DHT22;41504;53.162;6.788;2023-09-08T14:29:29;30.50;48.90
55634;DHT22;41504;53.162;6.788;2023-09-08T14:31:55;30.50;49.00
55634;DHT22;41504;53.162;6.788;2023-09-08T14:34:20;30.50;49.10
55634;DHT22;41504;53.162;6.788;2023-09-08T14:36:47;30.60;49.30
55634;DHT22;41504;53.162;6.788;2023-09-08T14:39:16;30.70;48.80
55634;DHT22;41504;53.162;6.788;2023-09-08T14:41:45;30.70;48.60
55634;DHT22;41504;53.162;6.788;2023-09-08T14:44:13;30.80;47.90
55634;DHT22;41504;53.162;6.788;2023-09-08T14:46:39;30.80;47.90
55634;DHT22;41504;53.162;6.788;2023-09-08T14:49:05;30.90;47.40
55634;DHT22;41504;53.162;6.788;2023-09-08T14:51:31;30.90;47.50
55634;DHT22;41504;53.162;6.788;2023-09-08T14:53:56;30.90;47.20
55634;DHT22;41504;53.162;6.788;2023-09-08T14:56:22;31.00;47.80
55634;DHT22;41504;53.162;6.788;2023-09-08T14:58:48;30.90;49.00
55634;DHT22;41504;53.162;6.788;2023-09-08T15:01:14;31.00;48.80
55634;DHT22;41504;53.162;6.788;2023-09-08T15:03:40;31.00;48.10
55634;DHT22;41504;53.162;6.788;2023-09-08T15:06:06;31.00;47.90
55634;DHT22;41504;53.162;6.788;2023-09-08T15:08:34;31.10;47.80
55634;DHT22;41504;53.162;6.788;2023-09-08T15:11:00;31.20;47.70
55634;DHT22;41504;53.162;6.788;2023-09-08T15:13:26;31.20;47.60
55634;DHT22;41504;53.162;6.788;2023-09-08T15:15:52;31.30;47.80
55634;DHT22;41504;53.162;6.788;2023-09-08T15:18:17;31.30;47.60
55634;DHT22;41504;53.162;6.788;2023-09-08T15:20:54;31.40;46.70
55634;DHT22;41504;53.162;6.788;2023-09-08T15:23:20;31.40;46.60
55634;DHT22;41504;53.162;6.788;2023-09-08T15:25:56;31.40;46.60
55634;DHT22;41504;53.162;6.788;2023-09-08T15:28:23;31.40;46.80
55634;DHT22;41504;53.162;6.788;2023-09-08T15:30:53;31.40;46.70
55634;DHT22;41504;53.162;6.788;2023-09-08T15:33:19;31.40;47.00
55634;DHT22;41504;53.162;6.788;2023-09-08T15:35:49;31.40;46.70
55634;DHT22;41504;53.162;6.788;2023-09-08T15:38:16;31.40;47.00
55634;DHT22;41504;53.162;6.788;2023-09-08T15:43:31;31.40;47.40